createdAt,value
2022-08-07T00:00:15.422Z,99804.13
2022-08-07T00:00:51.401Z,99815.47
2022-08-07T00:01:44.272Z,99819.72
2022-08-07T00:02:36.400Z,99813.88
2022-08-07T00:03:09.221Z,99809.03
2022-08-07T00:03:47.308Z,99813.69
2022-08-07T00:04:24.590Z,99818.13
2022-08-07T00:04:56.828Z,99811.91
2022-08-07T00:05:29.016Z,99816.56
2022-08-07T00:06:02.634Z,99818.81
2022-08-07T00:06:34.946Z,99822.19
2022-08-07T00:07:09.582Z,99812.59
2022-08-07T00:07:41.795Z,99820.31
2022-08-07T00:08:14.474Z,99819.94
2022-08-07T00:08:46.510Z,99818.34
2022-08-07T00:09:22.543Z,99819.13
2022-08-07T00:10:19.296Z,99821.62
2022-08-07T00:10:48.083Z,99824.28
2022-08-07T00:11:29.925Z,99815.97
2022-08-07T00:12:05.357Z,99824.34
2022-08-07T00:12:43.802Z,99822.28
2022-08-07T00:13:29.569Z,99822.69
2022-08-07T00:14:01.586Z,99820.31
2022-08-07T00:14:33.786Z,99821.09
2022-08-07T00:15:06.532Z,99820.03
2022-08-07T00:15:46.753Z,99819.53
2022-08-07T00:16:28.034Z,99823.84
2022-08-07T00:17:01.892Z,99821.59
2022-08-07T00:17:35.306Z,99816.00
2022-08-07T00:18:09.610Z,99823.88
2022-08-07T00:18:51.878Z,99823.38
2022-08-07T00:19:33.973Z,99819.63
2022-08-07T00:20:29.854Z,99821.62
2022-08-07T00:21:56.057Z,99820.63
2022-08-07T00:22:03.251Z,99822.69
2022-08-07T00:22:35.790Z,99821.41
2022-08-07T00:23:08.108Z,99821.78
2022-08-07T00:23:41.481Z,99816.56
2022-08-07T00:24:13.382Z,99814.38
2022-08-07T00:24:46.614Z,99814.38
2022-08-07T00:25:18.580Z,99820.31
2022-08-07T00:25:59.258Z,99822.50
2022-08-07T00:26:58.805Z,99820.69
2022-08-07T00:27:27.314Z,99818.81
2022-08-07T00:28:07.678Z,99822.88
2022-08-07T00:28:46.209Z,99828.81
2022-08-07T00:29:31.470Z,99819.81
2022-08-07T00:30:05.292Z,99817.53
2022-08-07T00:30:53.735Z,99831.56
2022-08-07T00:31:38.201Z,99823.88
2022-08-07T00:32:14.515Z,99823.88
2022-08-07T00:32:49.301Z,99827.63
2022-08-07T00:33:26.544Z,99825.84
2022-08-07T00:34:00.441Z,99823.38
2022-08-07T00:34:32.622Z,99823.28
2022-08-07T00:35:07.860Z,99827.53
2022-08-07T00:35:40.794Z,99828.00
2022-08-07T00:36:12.715Z,99831.53
2022-08-07T00:36:44.714Z,99836.28
2022-08-07T00:37:17.733Z,99828.97
2022-08-07T00:37:50.343Z,99828.38
2022-08-07T00:38:31.367Z,99830.25
2022-08-07T00:39:04.257Z,99833.91
2022-08-07T00:39:36.355Z,99831.53
2022-08-07T00:40:17.081Z,99841.03
2022-08-07T00:41:09.905Z,99831.06
2022-08-07T00:41:53.699Z,99830.56
2022-08-07T00:42:34.146Z,99825.37
2022-08-07T00:43:59.011Z,99831.53
2022-08-07T00:44:05.850Z,99836.31
2022-08-07T00:44:38.218Z,99831.94
2022-08-07T00:45:16.253Z,99821.69
2022-08-07T00:45:49.054Z,99825.81
2022-08-07T00:46:22.835Z,99828.59
2022-08-07T00:46:56.477Z,99827.38
2022-08-07T00:48:09.740Z,99826.50
2022-08-07T00:48:25.118Z,99818.00
2022-08-07T00:49:04.753Z,99824.38
2022-08-07T00:50:19.535Z,99823.56
2022-08-07T00:50:46.381Z,99827.59
2022-08-07T00:51:20.567Z,99823.56
2022-08-07T00:51:56.711Z,99828.59
2022-08-07T00:52:29.837Z,99823.28
2022-08-07T00:53:05.510Z,99823.25
2022-08-07T00:53:50.504Z,99811.37
2022-08-07T00:54:27.303Z,99820.50
2022-08-07T00:55:04.588Z,99816.09
2022-08-07T00:56:03.325Z,99807.16
2022-08-07T00:56:35.639Z,99813.00
2022-08-07T00:57:09.202Z,99817.13
2022-08-07T00:57:55.282Z,99811.97
2022-08-07T00:58:28.451Z,99811.19
2022-08-07T00:59:01.544Z,99809.63
2022-08-07T00:59:35.774Z,99811.37
2022-08-07T01:00:09.049Z,99813.00
2022-08-07T01:00:53.791Z,99815.34
2022-08-07T01:01:26.734Z,99817.44
2022-08-07T01:01:59.495Z,99812.59
2022-08-07T01:02:31.682Z,99814.75
2022-08-07T01:03:04.174Z,99822.84
2022-08-07T01:03:57.236Z,99817.41
2022-08-07T01:04:30.491Z,99820.00
2022-08-07T01:05:19.122Z,99818.78
2022-08-07T01:05:55.795Z,99817.53
2022-08-07T01:06:29.097Z,99815.25
2022-08-07T01:07:02.006Z,99821.56
2022-08-07T01:07:35.581Z,99813.97
2022-08-07T01:08:09.097Z,99810.69
2022-08-07T01:08:51.574Z,99818.87
2022-08-07T01:10:04.196Z,99816.41
2022-08-07T01:10:19.973Z,99817.69
2022-08-07T01:10:56.327Z,99813.75
2022-08-07T01:12:09.982Z,99810.78
2022-08-07T01:12:29.963Z,99816.41
2022-08-07T01:13:03.565Z,99814.16
2022-08-07T01:13:36.592Z,99808.44
2022-08-07T01:14:09.286Z,99808.25
2022-08-07T01:14:41.556Z,99807.06
2022-08-07T01:15:17.755Z,99802.50
2022-08-07T01:16:00.818Z,99808.63
2022-08-07T01:16:37.698Z,99811.37
2022-08-07T01:17:10.916Z,99811.97
2022-08-07T01:17:43.083Z,99814.78
2022-08-07T01:18:17.202Z,99811.59
2022-08-07T01:18:50.647Z,99815.34
2022-08-07T01:19:24.863Z,99810.81
2022-08-07T01:20:16.743Z,99810.09
2022-08-07T01:21:22.394Z,99813.00
2022-08-07T01:21:57.193Z,99819.38
2022-08-07T01:22:29.743Z,99819.09
2022-08-07T01:23:12.244Z,99819.88
2022-08-07T01:23:46.765Z,99817.37
2022-08-07T01:24:21.343Z,99819.09
2022-08-07T01:24:54.868Z,99814.56
2022-08-07T01:25:54.328Z,99818.50
2022-08-07T01:26:23.027Z,99812.59
2022-08-07T01:27:00.331Z,99820.19
2022-08-07T01:27:32.747Z,99816.50
2022-08-07T01:28:05.105Z,99819.69
2022-08-07T01:28:38.073Z,99814.56
2022-08-07T01:29:11.302Z,99817.69
2022-08-07T01:29:43.429Z,99814.56
2022-08-07T01:30:15.525Z,99815.34
2022-08-07T01:30:54.078Z,99814.06
2022-08-07T01:31:42.766Z,99813.00
2022-08-07T01:32:22.307Z,99813.50
2022-08-07T01:32:55.873Z,99813.16
2022-08-07T01:33:55.484Z,99817.41
2022-08-07T01:34:30.802Z,99812.38
2022-08-07T01:35:03.779Z,99812.19
2022-08-07T01:35:52.828Z,99823.66
2022-08-07T01:36:33.222Z,99819.28
2022-08-07T01:37:09.853Z,99816.34
2022-08-07T01:37:42.941Z,99813.19
2022-08-07T01:38:25.792Z,99814.16
2022-08-07T01:38:59.816Z,99817.31
2022-08-07T01:39:39.501Z,99818.91
2022-08-07T01:40:16.331Z,99815.34
2022-08-07T01:40:56.625Z,99811.03
2022-08-07T01:41:29.173Z,99816.56
2022-08-07T01:42:37.031Z,99811.53
2022-08-07T01:42:59.041Z,99807.66
2022-08-07T01:43:34.526Z,99813.00
2022-08-07T01:44:12.355Z,99816.16
2022-08-07T01:44:47.983Z,99812.38
2022-08-07T01:45:22.987Z,99813.97
2022-08-07T01:46:01.725Z,99807.94
2022-08-07T01:46:34.928Z,99815.56
2022-08-07T01:47:14.626Z,99811.78
2022-08-07T01:48:29.629Z,99818.09
2022-08-07T01:48:52.376Z,99817.16
2022-08-07T01:49:24.773Z,99816.09
2022-08-07T01:49:58.396Z,99816.56
2022-08-07T01:50:40.348Z,99814.88
2022-08-07T01:52:00.987Z,99812.81
2022-08-07T01:52:15.437Z,99813.28
2022-08-07T01:52:49.610Z,99815.66
2022-08-07T01:54:12.594Z,99815.66
2022-08-07T01:54:36.872Z,99814.78
2022-08-07T01:55:22.567Z,99813.09
2022-08-07T01:56:01.207Z,99808.81
2022-08-07T01:56:51.798Z,99808.63
2022-08-07T01:57:28.783Z,99814.56
2022-08-07T01:58:29.312Z,99811.88
2022-08-07T01:59:09.409Z,99809.41
2022-08-07T01:59:56.032Z,99811.19
2022-08-07T02:00:31.943Z,99811.00
2022-08-07T02:01:58.874Z,99812.59
2022-08-07T02:02:10.490Z,99809.31
2022-08-07T02:03:11.609Z,99811.19
2022-08-07T02:03:58.307Z,99810.41
2022-08-07T02:04:55.982Z,99816.81
2022-08-07T02:05:43.233Z,99821.84
2022-08-07T02:06:31.523Z,99815.53
2022-08-07T02:07:07.648Z,99817.87
2022-08-07T02:07:52.342Z,99813.47
2022-08-07T02:08:26.719Z,99820.66
2022-08-07T02:09:00.649Z,99816.03
2022-08-07T02:09:54.777Z,99817.09
2022-08-07T02:10:30.679Z,99823.31
2022-08-07T02:11:04.541Z,99824.22
2022-08-07T02:12:05.105Z,99820.09
2022-08-07T02:12:38.532Z,99819.59
2022-08-07T02:13:14.166Z,99824.41
2022-08-07T02:13:58.217Z,99825.00
2022-08-07T02:14:40.876Z,99823.44
2022-08-07T02:15:18.261Z,99826.19
2022-08-07T02:15:53.290Z,99824.13
2022-08-07T02:16:28.762Z,99825.59
2022-08-07T02:17:06.391Z,99826.06
2022-08-07T02:17:41.118Z,99823.81
2022-08-07T02:18:22.658Z,99826.78
2022-08-07T02:18:58.653Z,99827.75
2022-08-07T02:20:04.550Z,99824.03
2022-08-07T02:20:24.720Z,99825.69
2022-08-07T02:21:00.364Z,99831.75
2022-08-07T02:21:55.088Z,99828.78
2022-08-07T02:22:31.682Z,99837.09
2022-08-07T02:23:06.113Z,99834.59
2022-08-07T02:23:40.939Z,99829.56
2022-08-07T02:24:17.747Z,99829.75
2022-08-07T02:24:53.314Z,99834.09
2022-08-07T02:26:10.315Z,99834.69
2022-08-07T02:26:33.062Z,99827.56
2022-08-07T02:27:08.479Z,99827.69
2022-08-07T02:27:42.767Z,99830.34
2022-08-07T02:28:27.178Z,99822.75
2022-08-07T02:29:00.906Z,99833.09
2022-08-07T02:29:36.907Z,99836.28
2022-08-07T02:30:21.486Z,99839.84
2022-08-07T02:30:56.458Z,99837.84
2022-08-07T02:31:31.036Z,99837.66
2022-08-07T02:32:07.000Z,99834.97
2022-08-07T02:33:00.808Z,99835.25
2022-08-07T02:33:57.192Z,99837.62
2022-08-07T02:34:31.092Z,99842.88
2022-08-07T02:35:09.176Z,99838.25
2022-08-07T02:36:30.096Z,99838.44
2022-08-07T02:36:38.575Z,99836.44
2022-08-07T02:37:14.286Z,99839.31
2022-08-07T02:37:48.891Z,99838.94
2022-08-07T02:38:28.246Z,99837.28
2022-08-07T02:39:16.175Z,99840.81
2022-08-07T02:40:02.026Z,99839.53
2022-08-07T02:40:46.685Z,99826.37
2022-08-07T02:41:21.659Z,99830.56
2022-08-07T02:41:56.541Z,99834.09
2022-08-07T02:42:31.172Z,99836.56
2022-08-07T02:43:07.776Z,99840.13
2022-08-07T02:43:43.262Z,99839.63
2022-08-07T02:44:21.361Z,99842.69
2022-08-07T02:44:58.399Z,99841.50
2022-08-07T02:45:58.956Z,99841.78
2022-08-07T02:46:26.129Z,99838.84
2022-08-07T02:47:05.306Z,99841.78
2022-08-07T02:47:45.070Z,99839.03
2022-08-07T02:48:21.671Z,99840.59
2022-08-07T02:48:54.928Z,99836.88
2022-08-07T02:49:29.133Z,99840.59
2022-08-07T02:50:21.099Z,99845.84
2022-08-07T02:50:56.336Z,99844.34
2022-08-07T02:51:49.889Z,99836.28
2022-08-07T02:52:37.337Z,99840.50
2022-08-07T02:53:15.273Z,99844.69
2022-08-07T02:53:54.278Z,99847.34
2022-08-07T02:54:29.988Z,99850.28
2022-08-07T02:55:27.825Z,99849.50
2022-08-07T02:56:06.557Z,99846.34
2022-08-07T02:56:47.398Z,99851.59
2022-08-07T02:57:23.471Z,99854.25
2022-08-07T02:58:08.256Z,99847.84
2022-08-07T02:58:47.311Z,99847.44
2022-08-07T02:59:27.421Z,99847.72
2022-08-07T03:00:04.989Z,99848.03
2022-08-07T03:00:46.881Z,99847.94
2022-08-07T03:01:35.047Z,99843.59
2022-08-07T03:02:10.336Z,99849.78
2022-08-07T03:02:55.134Z,99848.13
2022-08-07T03:03:49.263Z,99851.59
2022-08-07T03:04:24.344Z,99848.66
2022-08-07T03:04:58.711Z,99853.63
2022-08-07T03:05:35.950Z,99853.47
2022-08-07T03:06:16.560Z,99850.47
2022-08-07T03:07:07.093Z,99852.16
2022-08-07T03:08:05.085Z,99854.28
2022-08-07T03:08:38.678Z,99844.28
2022-08-07T03:09:11.686Z,99846.69
2022-08-07T03:09:48.257Z,99843.25
2022-08-07T03:10:23.450Z,99843.94
2022-08-07T03:10:57.424Z,99848.50
2022-08-07T03:11:38.534Z,99843.66
2022-08-07T03:12:21.808Z,99841.78
2022-08-07T03:12:55.326Z,99842.38
2022-08-07T03:13:27.985Z,99850.38
2022-08-07T03:14:03.633Z,99839.63
2022-08-07T03:14:36.443Z,99850.28
2022-08-07T03:15:09.428Z,99851.56
2022-08-07T03:15:55.802Z,99845.84
2022-08-07T03:16:31.726Z,99845.97
2022-08-07T03:17:05.838Z,99843.69
2022-08-07T03:17:53.050Z,99841.09
2022-08-07T03:18:34.983Z,99844.94
2022-08-07T03:19:10.064Z,99849.50
2022-08-07T03:19:42.777Z,99845.38
2022-08-07T03:20:27.524Z,99850.69
2022-08-07T03:20:59.882Z,99847.94
2022-08-07T03:21:32.854Z,99841.87
2022-08-07T03:22:06.875Z,99852.28
2022-08-07T03:22:41.806Z,99845.75
2022-08-07T03:23:33.619Z,99848.72
2022-08-07T03:24:20.022Z,99846.75
2022-08-07T03:25:00.547Z,99846.97
2022-08-07T03:25:40.377Z,99849.31
2022-08-07T03:26:23.440Z,99842.91
2022-08-07T03:27:01.955Z,99848.81
2022-08-07T03:27:58.779Z,99853.28
2022-08-07T03:28:37.387Z,99845.38
2022-08-07T03:29:14.834Z,99853.56
2022-08-07T03:29:53.101Z,99853.28
2022-08-07T03:30:28.487Z,99855.13
2022-08-07T03:31:19.614Z,99847.44
2022-08-07T03:31:58.056Z,99858.00
2022-08-07T03:32:39.488Z,99850.09
2022-08-07T03:33:22.005Z,99849.69
2022-08-07T03:33:57.950Z,99854.03
2022-08-07T03:34:39.377Z,99860.34
2022-08-07T03:35:17.901Z,99850.38
2022-08-07T03:35:51.152Z,99852.44
2022-08-07T03:36:25.930Z,99845.53
2022-08-07T03:37:12.415Z,99850.66
2022-08-07T03:37:53.151Z,99850.88
2022-08-07T03:38:29.752Z,99848.22
2022-08-07T03:39:11.764Z,99858.56
2022-08-07T03:40:13.224Z,99859.66
2022-08-07T03:40:44.556Z,99855.56
2022-08-07T03:41:17.555Z,99857.00
2022-08-07T03:41:50.867Z,99854.69
2022-08-07T03:42:25.852Z,99851.34
2022-08-07T03:42:58.802Z,99854.03
2022-08-07T03:43:33.489Z,99853.03
2022-08-07T03:44:09.051Z,99857.00
2022-08-07T03:44:42.170Z,99850.38
2022-08-07T03:45:29.971Z,99855.19
2022-08-07T03:46:10.367Z,99854.50
2022-08-07T03:47:10.716Z,99858.06
2022-08-07T03:47:48.206Z,99863.19
2022-08-07T03:48:24.404Z,99864.03
2022-08-07T03:49:02.703Z,99865.25
2022-08-07T03:49:36.419Z,99860.91
2022-08-07T03:50:10.654Z,99860.72
2022-08-07T03:50:55.770Z,99870.28
2022-08-07T03:51:31.213Z,99865.44
2022-08-07T03:52:26.643Z,99866.16
2022-08-07T03:53:01.090Z,99868.09
2022-08-07T03:54:05.489Z,99871.87
2022-08-07T03:54:35.231Z,99873.53
2022-08-07T03:55:11.021Z,99875.09
2022-08-07T03:55:53.420Z,99872.37
2022-08-07T03:56:33.584Z,99877.13
2022-08-07T03:57:08.121Z,99874.22
2022-08-07T03:58:33.924Z,99872.94
2022-08-07T03:59:08.301Z,99872.94
2022-08-07T03:59:28.169Z,99879.87
2022-08-07T04:00:01.864Z,99876.09
2022-08-07T04:00:38.599Z,99876.69
2022-08-07T04:01:21.016Z,99879.44
2022-08-07T04:01:56.268Z,99880.22
2022-08-07T04:02:29.086Z,99882.62
2022-08-07T04:03:03.857Z,99879.44
2022-08-07T04:03:38.901Z,99876.28
2022-08-07T04:04:25.655Z,99882.13
2022-08-07T04:04:58.788Z,99877.81
2022-08-07T04:05:41.056Z,99883.12
2022-08-07T04:06:38.449Z,99878.00
2022-08-07T04:07:16.765Z,99876.41
2022-08-07T04:07:51.399Z,99876.12
2022-08-07T04:08:25.168Z,99884.00
2022-08-07T04:08:58.026Z,99883.06
2022-08-07T04:09:44.734Z,99882.69
2022-08-07T04:10:19.364Z,99885.50
2022-08-07T04:12:24.943Z,99885.28
2022-08-07T04:12:25.144Z,99883.62
2022-08-07T04:12:40.344Z,99886.72
2022-08-07T04:13:15.092Z,99889.00
2022-08-07T04:14:33.243Z,99886.19
2022-08-07T04:14:43.868Z,99883.84
2022-08-07T04:15:20.381Z,99887.22
2022-08-07T04:15:56.055Z,99890.34
2022-08-07T04:16:32.569Z,99885.59
2022-08-07T04:17:19.868Z,99888.44
2022-08-07T04:18:58.077Z,99892.84
2022-08-07T04:18:59.028Z,99891.69
2022-08-07T04:19:52.011Z,99889.22
2022-08-07T04:20:26.982Z,99890.41
2022-08-07T04:21:00.548Z,99889.66
2022-08-07T04:21:33.538Z,99889.09
2022-08-07T04:22:13.242Z,99891.09
2022-08-07T04:22:53.575Z,99893.13
2022-08-07T04:23:43.667Z,99898.16
2022-08-07T04:24:30.463Z,99897.09
2022-08-07T04:25:08.869Z,99894.94
2022-08-07T04:25:45.861Z,99897.44
2022-08-07T04:26:22.164Z,99901.41
2022-08-07T04:26:54.346Z,99893.69
2022-08-07T04:27:28.203Z,99894.69
2022-08-07T04:28:01.197Z,99896.31
2022-08-07T04:28:33.825Z,99902.19
2022-08-07T04:29:11.037Z,99893.69
2022-08-07T04:29:58.672Z,99898.66
2022-08-07T04:30:43.464Z,99898.34
2022-08-07T04:31:38.442Z,99898.09
2022-08-07T04:32:27.265Z,99904.78
2022-08-07T04:33:09.730Z,99901.06
2022-08-07T04:33:47.247Z,99903.56
2022-08-07T04:34:33.047Z,99900.31
2022-08-07T04:35:11.386Z,99904.63
2022-08-07T04:35:50.383Z,99898.75
2022-08-07T04:36:26.383Z,99910.84
2022-08-07T04:36:58.751Z,99908.97
2022-08-07T04:38:00.951Z,99910.41
2022-08-07T04:38:26.072Z,99904.22
2022-08-07T04:38:58.769Z,99916.03
2022-08-07T04:39:35.997Z,99916.53
2022-08-07T04:40:09.389Z,99914.59
2022-08-07T04:40:51.672Z,99914.44
2022-08-07T04:41:24.629Z,99912.56
2022-08-07T04:42:03.327Z,99920.31
2022-08-07T04:42:35.613Z,99912.06
2022-08-07T04:43:09.175Z,99915.22
2022-08-07T04:44:12.334Z,99913.31
2022-08-07T04:44:36.732Z,99913.16
2022-08-07T04:45:57.490Z,99909.59
2022-08-07T04:47:03.827Z,99913.88
2022-08-07T04:47:57.272Z,99912.25
2022-08-07T04:48:51.926Z,99916.13
2022-08-07T04:49:58.173Z,99918.56
2022-08-07T04:50:51.980Z,99914.66
2022-08-07T04:51:35.369Z,99913.66
2022-08-07T04:52:25.177Z,99910.22
2022-08-07T04:53:27.807Z,99918.72
2022-08-07T04:54:30.082Z,99921.66
2022-08-07T04:55:34.976Z,99926.75
2022-08-07T04:58:13.248Z,99924.53
2022-08-07T04:58:24.427Z,99925.03
2022-08-07T04:59:17.189Z,99925.53
2022-08-07T05:00:11.340Z,99925.81
2022-08-07T05:00:59.596Z,99927.84
2022-08-07T05:01:40.645Z,99925.00
2022-08-07T05:02:22.184Z,99929.38
2022-08-07T05:03:16.901Z,99924.25
2022-08-07T05:04:22.462Z,99927.50
2022-08-07T05:05:51.694Z,99923.75
2022-08-07T05:06:28.183Z,99926.25
2022-08-07T05:07:20.987Z,99930.94
2022-08-07T05:08:06.165Z,99931.34
2022-08-07T05:09:00.649Z,99935.81
2022-08-07T05:09:47.067Z,99926.59
2022-08-07T05:10:29.192Z,99935.19
2022-08-07T05:11:10.088Z,99935.97
2022-08-07T05:11:58.381Z,99932.53
2022-08-07T05:12:53.125Z,99932.31
2022-08-07T05:14:54.376Z,99935.69
2022-08-07T05:14:55.702Z,99934.91
2022-08-07T05:15:36.092Z,99938.59
2022-08-07T05:16:10.450Z,99943.75
2022-08-07T05:16:52.780Z,99933.97
2022-08-07T05:17:50.887Z,99938.00
2022-08-07T05:18:23.645Z,99931.81
2022-08-07T05:19:04.780Z,99935.06
2022-08-07T05:19:48.399Z,99938.16
2022-08-07T05:20:26.957Z,99940.16
2022-08-07T05:21:04.002Z,99942.47
2022-08-07T05:22:00.691Z,99943.34
2022-08-07T05:22:35.963Z,99934.75
2022-08-07T05:23:29.099Z,99943.25
2022-08-07T05:24:09.265Z,99943.25
2022-08-07T05:24:42.504Z,99939.13
2022-08-07T05:25:25.679Z,99944.66
2022-08-07T05:26:23.529Z,99947.84
2022-08-07T05:27:00.031Z,99947.06
2022-08-07T05:28:03.412Z,99942.50
2022-08-07T05:28:27.621Z,99945.69
2022-08-07T05:29:04.391Z,99950.22
2022-08-07T05:29:50.985Z,99940.44
2022-08-07T05:30:30.326Z,99952.03
2022-08-07T05:31:07.690Z,99945.09
2022-08-07T05:31:51.191Z,99943.34
2022-08-07T05:32:26.498Z,99950.19
2022-08-07T05:33:00.506Z,99939.50
2022-08-07T05:33:37.102Z,99952.84
2022-08-07T05:34:15.830Z,99944.28
2022-08-07T05:34:49.807Z,99946.09
2022-08-07T05:35:33.467Z,99953.16
2022-08-07T05:36:22.702Z,99948.59
2022-08-07T05:37:05.753Z,99946.56
2022-08-07T05:37:40.844Z,99958.09
2022-08-07T05:39:00.704Z,99961.78
2022-08-07T05:40:06.745Z,99947.59
2022-08-07T05:40:13.705Z,99949.38
2022-08-07T05:40:51.478Z,99949.94
2022-08-07T05:41:25.600Z,99949.19
2022-08-07T05:42:33.894Z,99949.00
2022-08-07T05:43:10.615Z,99948.50
2022-08-07T05:44:12.735Z,99952.38
2022-08-07T05:44:52.977Z,99954.94
2022-08-07T05:45:46.886Z,99948.41
2022-08-07T05:46:22.256Z,99951.00
2022-08-07T05:47:01.209Z,99956.84
2022-08-07T05:47:38.505Z,99957.25
2022-08-07T05:48:29.362Z,99949.31
2022-08-07T05:49:11.865Z,99958.13
2022-08-07T05:49:45.740Z,99949.81
2022-08-07T05:50:18.770Z,99952.56
2022-08-07T05:50:51.729Z,99955.53
2022-08-07T05:51:24.311Z,99957.25
2022-08-07T05:51:56.987Z,99959.69
2022-08-07T05:52:32.399Z,99954.75
2022-08-07T05:53:05.070Z,99953.94
2022-08-07T05:54:13.598Z,99952.09
2022-08-07T05:54:31.142Z,99951.38
2022-08-07T05:55:10.928Z,99959.28
2022-08-07T05:56:02.268Z,99960.44
2022-08-07T05:56:40.796Z,99956.09
2022-08-07T05:57:15.077Z,99956.19
2022-08-07T05:57:48.080Z,99960.44
2022-08-07T05:58:36.415Z,99960.28
2022-08-07T05:59:15.367Z,99958.91
2022-08-07T05:59:57.994Z,99960.56
2022-08-07T06:00:33.826Z,99961.16
2022-08-07T06:01:11.132Z,99959.00
2022-08-07T06:01:45.967Z,99956.44
2022-08-07T06:02:22.012Z,99959.09
2022-08-07T06:03:05.330Z,99964.03
2022-08-07T06:03:53.926Z,99961.94
2022-08-07T06:04:31.036Z,99961.13
2022-08-07T06:05:11.030Z,99968.38
2022-08-07T06:05:49.279Z,99956.25
2022-08-07T06:06:29.888Z,99954.72
2022-08-07T06:07:06.140Z,99958.69
2022-08-07T06:08:14.237Z,99953.75
2022-08-07T06:08:32.723Z,99963.25
2022-08-07T06:09:05.338Z,99961.47
2022-08-07T06:09:45.319Z,99961.66
2022-08-07T06:10:31.223Z,99961.66
2022-08-07T06:11:03.776Z,99954.56
2022-08-07T06:11:37.804Z,99956.53
2022-08-07T06:12:10.454Z,99966.22
2022-08-07T06:12:44.546Z,99969.87
2022-08-07T06:13:17.483Z,99965.66
2022-08-07T06:14:12.889Z,99966.75
2022-08-07T06:14:43.333Z,99967.72
2022-08-07T06:15:42.058Z,99968.03
2022-08-07T06:16:16.377Z,99965.34
2022-08-07T06:16:55.871Z,99963.34
2022-08-07T06:17:37.610Z,99970.09
2022-08-07T06:18:13.907Z,99968.03
2022-08-07T06:18:51.746Z,99967.72
2022-08-07T06:19:52.369Z,99962.87
2022-08-07T06:20:32.152Z,99965.44
2022-08-07T06:22:14.679Z,99961.78
2022-08-07T06:22:15.645Z,99965.44
2022-08-07T06:23:02.416Z,99957.53
2022-08-07T06:24:48.154Z,99955.94
2022-08-07T06:24:56.797Z,99966.81
2022-08-07T06:25:34.871Z,99966.12
2022-08-07T06:26:11.316Z,99963.66
2022-08-07T06:26:43.409Z,99970.19
2022-08-07T06:27:59.966Z,99962.06
2022-08-07T06:28:18.304Z,99966.41
2022-08-07T06:29:01.317Z,99966.72
2022-08-07T06:29:38.862Z,99959.09
2022-08-07T06:30:32.064Z,99965.25
2022-08-07T06:31:03.934Z,99970.59
2022-08-07T06:31:50.033Z,99971.25
2022-08-07T06:32:23.043Z,99972.25
2022-08-07T06:33:02.278Z,99971.88
2022-08-07T06:33:36.294Z,99971.75
2022-08-07T06:34:08.362Z,99971.34
2022-08-07T06:34:45.141Z,99973.53
2022-08-07T06:35:17.698Z,99969.97
2022-08-07T06:36:06.586Z,99968.97
2022-08-07T06:36:43.321Z,99971.34
2022-08-07T06:37:17.173Z,99975.22
2022-08-07T06:38:10.061Z,99969.59
2022-08-07T06:40:12.830Z,99967.22
2022-08-07T06:40:13.667Z,99966.62
2022-08-07T06:40:51.238Z,99968.22
2022-08-07T06:42:02.566Z,99967.00
2022-08-07T06:42:37.028Z,99970.37
2022-08-07T06:43:21.644Z,99973.34
2022-08-07T06:43:59.464Z,99971.88
2022-08-07T06:44:41.013Z,99968.69
2022-08-07T06:45:18.825Z,99972.66
2022-08-07T06:45:57.375Z,99978.09
2022-08-07T06:46:35.254Z,99975.91
2022-08-07T06:47:12.021Z,99975.72
2022-08-07T06:47:59.025Z,99975.00
2022-08-07T06:48:32.325Z,99971.78
2022-08-07T06:49:05.815Z,99972.56
2022-08-07T06:49:52.045Z,99974.22
2022-08-07T06:50:36.073Z,99969.69
2022-08-07T06:51:10.806Z,99983.53
2022-08-07T06:51:49.953Z,99981.06
2022-08-07T06:52:31.986Z,99977.87
2022-08-07T06:53:49.111Z,99977.31
2022-08-07T06:55:29.107Z,99978.19
2022-08-07T06:55:31.677Z,99978.09
2022-08-07T06:56:00.416Z,99977.94
2022-08-07T06:56:49.711Z,99979.78
2022-08-07T06:57:39.287Z,99981.50
2022-08-07T06:58:21.584Z,99975.84
2022-08-07T07:00:12.532Z,99981.59
2022-08-07T07:00:13.978Z,99978.13
2022-08-07T07:00:45.807Z,99975.66
2022-08-07T07:01:18.190Z,99988.81
2022-08-07T07:01:52.549Z,99975.94
2022-08-07T07:02:53.444Z,99980.88
2022-08-07T07:03:39.714Z,99991.69
2022-08-07T07:04:28.434Z,99987.19
2022-08-07T07:05:05.767Z,99986.41
2022-08-07T07:06:05.632Z,99987.25
2022-08-07T07:06:32.117Z,99989.75
2022-08-07T07:07:19.369Z,99987.75
2022-08-07T07:08:07.299Z,99985.59
2022-08-07T07:08:47.004Z,99987.25
2022-08-07T07:09:31.408Z,99984.75
2022-08-07T07:10:04.413Z,99986.94
2022-08-07T07:10:36.771Z,99987.31
2022-08-07T07:11:13.917Z,99983.69
2022-08-07T07:12:29.206Z,99981.69
2022-08-07T07:13:17.157Z,99984.13
2022-08-07T07:14:10.392Z,99985.75
2022-08-07T07:14:58.661Z,99986.94
2022-08-07T07:15:37.659Z,99982.97
2022-08-07T07:16:19.487Z,99991.59
2022-08-07T07:16:56.282Z,99987.72
2022-08-07T07:17:50.406Z,99989.66
2022-08-07T07:18:47.807Z,99983.00
2022-08-07T07:19:55.224Z,99992.19
2022-08-07T07:20:22.030Z,99988.47
2022-08-07T07:21:13.541Z,99986.03
2022-08-07T07:22:12.053Z,99989.66
2022-08-07T07:24:09.487Z,99987.78
2022-08-07T07:24:09.725Z,99984.66
2022-08-07T07:24:32.965Z,99989.25
2022-08-07T07:26:30.861Z,99983.00
2022-08-07T07:26:35.301Z,99982.09
2022-08-07T07:27:03.976Z,99993.56
2022-08-07T07:27:55.787Z,99984.88
2022-08-07T07:29:38.864Z,99990.44
2022-08-07T07:30:08.815Z,99986.59
2022-08-07T07:30:39.752Z,99987.91
2022-08-07T07:31:44.479Z,99991.06
2022-08-07T07:32:17.930Z,99994.78
2022-08-07T07:32:53.181Z,100000.63
2022-08-07T07:33:28.542Z,99988.44
2022-08-07T07:34:06.699Z,99996.25
2022-08-07T07:34:42.195Z,99991.06
2022-08-07T07:35:15.183Z,99993.00
2022-08-07T07:36:04.059Z,100000.37
2022-08-07T07:36:40.371Z,99990.28
2022-08-07T07:37:44.435Z,99991.84
2022-08-07T07:38:08.501Z,99996.62
2022-08-07T07:38:46.001Z,99997.25
2022-08-07T07:39:20.967Z,99995.50
2022-08-07T07:39:59.072Z,99992.66
2022-08-07T07:40:33.367Z,99988.50
2022-08-07T07:41:09.248Z,99993.37
2022-08-07T07:42:02.109Z,99994.66
2022-08-07T07:42:37.765Z,99992.59
2022-08-07T07:43:15.235Z,99995.25
2022-08-07T07:44:17.363Z,99997.03
2022-08-07T07:44:49.469Z,99990.78
2022-08-07T07:46:35.577Z,99994.59
2022-08-07T07:46:37.035Z,100002.13
2022-08-07T07:47:23.724Z,99994.53
2022-08-07T07:47:57.745Z,99994.34
2022-08-07T07:48:34.991Z,99999.53
2022-08-07T07:50:35.014Z,99992.44
2022-08-07T07:50:35.564Z,99997.69
2022-08-07T07:50:55.976Z,99982.91
2022-08-07T07:51:29.910Z,99989.75
2022-08-07T07:52:25.887Z,99987.38
2022-08-07T07:52:59.114Z,99991.03
2022-08-07T07:53:36.769Z,99984.41
2022-08-07T07:54:25.059Z,99987.56
2022-08-07T07:54:59.208Z,99987.25
2022-08-07T07:55:37.156Z,99993.03
2022-08-07T07:56:13.131Z,99985.78
2022-08-07T07:56:46.637Z,99984.81
2022-08-07T07:57:52.250Z,99981.16
2022-08-07T07:58:15.877Z,99990.00
2022-08-07T07:58:51.943Z,99988.84
2022-08-07T07:59:52.894Z,99986.81
2022-08-07T08:00:31.476Z,99983.81
2022-08-07T08:02:04.760Z,99988.34
2022-08-07T08:02:10.316Z,99984.44
2022-08-07T08:03:00.949Z,99989.19
2022-08-07T08:04:11.127Z,99980.94
2022-08-07T08:04:32.856Z,99983.25
2022-08-07T08:05:11.526Z,99975.59
2022-08-07T08:05:54.933Z,99981.91
2022-08-07T08:06:28.837Z,99979.03
2022-08-07T08:07:07.783Z,99982.69
2022-08-07T08:08:00.043Z,99980.13